createdAt,value
2019-02-12T00:00:55.935Z,99505.67
2019-02-12T00:03:27.766Z,99505.62
2019-02-12T00:05:58.730Z,99500.81
2019-02-12T00:08:29.665Z,99503.31
2019-02-12T00:11:02.392Z,99511.66
2019-02-12T00:13:32.905Z,99500.70
2019-02-12T00:16:03.342Z,99501.44
2019-02-12T00:18:36.001Z,99496.63
2019-02-12T00:21:09.203Z,99503.36
2019-02-12T00:23:40.668Z,99493.30
2019-02-12T00:26:13.660Z,99487.18
2019-02-12T00:28:44.434Z,99481.83
2019-02-12T00:31:15.026Z,99485.50
2019-02-12T00:33:46.274Z,99481.14
2019-02-12T00:36:20.113Z,99489.95
2019-02-12T00:38:50.619Z,99489.95
2019-02-12T00:41:22.307Z,99490.81
2019-02-12T00:43:53.402Z,99487.75
2019-02-12T00:46:24.123Z,99493.73
2019-02-12T00:48:55.448Z,99490.80
2019-02-12T00:51:25.960Z,99498.87
2019-02-12T00:53:56.647Z,99497.58
2019-02-12T00:56:28.866Z,99498.26
2019-02-12T00:58:59.591Z,99493.17
2019-02-12T01:01:30.759Z,99489.95
2019-02-12T01:04:01.960Z,99481.35
2019-02-12T01:06:32.431Z,99480.09
2019-02-12T01:09:04.786Z,99478.38
2019-02-12T01:11:35.947Z,99485.95
2019-02-12T01:14:06.808Z,99478.88
2019-02-12T01:16:50.580Z,99478.88
2019-02-12T01:19:22.705Z,99470.47
2019-02-12T01:21:53.761Z,99465.98
2019-02-12T01:24:24.489Z,99465.98
2019-02-12T01:26:55.106Z,99464.45
2019-02-12T01:29:27.335Z,99465.03
2019-02-12T01:31:58.126Z,99472.91
2019-02-12T01:34:30.047Z,99463.84
2019-02-12T01:37:01.268Z,99463.84
2019-02-12T01:39:31.959Z,99471.34
2019-02-12T01:42:02.883Z,99471.34
2019-02-12T01:44:33.450Z,99465.06
2019-02-12T01:47:04.457Z,99456.48
2019-02-12T01:49:35.142Z,99456.48
2019-02-12T01:52:05.798Z,99460.39
2019-02-12T01:54:36.566Z,99461.56
2019-02-12T01:57:06.971Z,99454.51
2019-02-12T01:59:38.852Z,99454.97
2019-02-12T02:02:09.558Z,99457.95
2019-02-12T02:04:40.029Z,99471.91
2019-02-12T02:07:10.652Z,99463.88
2019-02-12T02:09:42.113Z,99475.02
2019-02-12T02:12:13.296Z,99470.84
2019-02-12T02:14:44.516Z,99470.84
2019-02-12T02:17:15.881Z,99458.39
2019-02-12T02:19:46.762Z,99468.71
2019-02-12T02:22:18.617Z,99472.59
2019-02-12T02:24:50.138Z,99466.89
2019-02-12T02:27:23.499Z,99473.63
2019-02-12T02:29:54.707Z,99473.63
2019-02-12T02:32:26.729Z,99477.91
2019-02-12T02:34:57.540Z,99480.48
2019-02-12T02:37:28.209Z,99471.95
2019-02-12T02:39:58.753Z,99471.95
2019-02-12T02:42:29.478Z,99475.13
2019-02-12T02:45:00.492Z,99485.61
2019-02-12T02:47:32.657Z,99477.46
2019-02-12T02:50:05.659Z,99482.52
2019-02-12T02:52:37.669Z,99482.52
2019-02-12T02:55:08.747Z,99471.72
2019-02-12T02:57:39.561Z,99473.25
2019-02-12T03:00:11.075Z,99473.25
2019-02-12T03:02:41.915Z,99482.30
2019-02-12T03:05:12.991Z,99478.29
2019-02-12T03:07:43.655Z,99481.13
2019-02-12T03:10:16.198Z,99481.13
2019-02-12T03:12:46.864Z,99478.23
2019-02-12T03:15:17.911Z,99479.08
2019-02-12T03:17:50.120Z,99476.05
2019-02-12T03:20:20.770Z,99476.05
2019-02-12T03:22:52.325Z,99466.33
2019-02-12T03:25:23.498Z,99469.43
2019-02-12T03:27:56.124Z,99479.72
2019-02-12T03:30:27.442Z,99479.72
2019-02-12T03:32:58.296Z,99473.13
2019-02-12T03:35:29.206Z,99473.36
2019-02-12T03:37:59.929Z,99480.13
2019-02-12T03:40:30.446Z,99475.73
2019-02-12T03:43:01.331Z,99477.16
2019-02-12T03:45:33.039Z,99477.16
2019-02-12T03:48:04.918Z,99467.44
2019-02-12T03:50:35.571Z,99467.93
2019-02-12T03:53:06.771Z,99467.93
2019-02-12T03:55:37.282Z,99462.12
2019-02-12T03:58:08.274Z,99460.13
2019-02-12T04:00:40.608Z,99460.13
2019-02-12T04:03:10.996Z,99451.83
2019-02-12T04:05:41.954Z,99455.58
2019-02-12T04:08:12.729Z,99450.61
2019-02-12T04:10:45.570Z,99447.73
2019-02-12T04:13:16.237Z,99454.02
2019-02-12T04:15:48.258Z,99449.04
2019-02-12T04:18:18.872Z,99442.61
2019-02-12T04:20:51.185Z,99442.61
2019-02-12T04:23:21.973Z,99451.87
2019-02-12T04:25:52.802Z,99457.23
2019-02-12T04:28:25.083Z,99447.55
2019-02-12T04:30:56.786Z,99455.88
2019-02-12T04:33:27.609Z,99444.16
2019-02-12T04:35:58.186Z,99444.88
2019-02-12T04:38:28.931Z,99443.23
2019-02-12T04:41:00.043Z,99446.33
2019-02-12T04:43:32.231Z,99446.33
2019-02-12T04:46:04.157Z,99446.33
2019-02-12T04:48:35.088Z,99432.77
2019-02-12T04:51:06.164Z,99432.77
2019-02-12T04:53:37.031Z,99432.05
2019-02-12T04:56:07.618Z,99433.00
2019-02-12T04:58:38.916Z,99438.22
2019-02-12T05:01:10.889Z,99429.10
2019-02-12T05:03:41.484Z,99429.10
2019-02-12T05:06:12.134Z,99454.47
2019-02-12T05:09:13.819Z,99446.66
2019-02-12T05:11:47.299Z,99446.17
2019-02-12T05:14:17.700Z,99457.41
2019-02-12T05:16:48.413Z,99475.54
2019-02-12T05:19:18.946Z,99475.54
2019-02-12T05:21:50.177Z,99497.44
2019-02-12T05:24:21.393Z,99497.44
2019-02-12T05:26:57.462Z,99519.16
2019-02-12T05:29:29.838Z,99519.16
2019-02-12T05:32:00.396Z,99498.65
2019-02-12T05:34:31.603Z,99517.10
2019-02-12T05:37:02.895Z,99517.10
2019-02-12T05:39:33.553Z,99534.25
2019-02-12T05:42:04.867Z,99538.84
2019-02-12T05:44:36.126Z,99544.59
2019-02-12T05:47:08.096Z,99544.59
2019-02-12T05:49:41.531Z,99525.05
2019-02-12T05:52:12.331Z,99525.05
2019-02-12T05:54:43.177Z,99517.61
2019-02-12T05:57:13.929Z,99522.52
2019-02-12T05:59:46.985Z,99548.23
2019-02-12T06:02:17.255Z,99560.16
2019-02-12T06:04:48.310Z,99558.55
2019-02-12T06:07:19.110Z,99566.00
2019-02-12T06:09:50.326Z,99572.45
2019-02-12T06:12:21.410Z,99583.63
2019-02-12T06:14:53.734Z,99600.84
2019-02-12T06:17:27.784Z,99593.86
2019-02-12T06:19:59.588Z,99574.37
2019-02-12T06:22:30.116Z,99573.72
2019-02-12T06:25:01.764Z,99584.59
2019-02-12T06:27:33.269Z,99580.91
2019-02-12T06:30:04.566Z,99584.80
2019-02-12T06:32:35.244Z,99587.88
2019-02-12T06:35:05.733Z,99590.75
2019-02-12T06:37:38.214Z,99596.27
2019-02-12T06:40:09.679Z,99595.13
2019-02-12T06:42:41.567Z,99590.45
2019-02-12T06:45:12.469Z,99590.16
2019-02-12T06:47:44.608Z,99566.98
2019-02-12T06:50:15.863Z,99581.36
2019-02-12T06:52:46.373Z,99562.53
2019-02-12T06:55:17.607Z,99561.94
2019-02-12T06:57:48.469Z,99552.71
2019-02-12T07:00:18.998Z,99572.30
2019-02-12T07:03:16.906Z,99610.78
2019-02-12T07:06:00.337Z,99643.87
2019-02-12T07:08:53.402Z,99662.78
2019-02-12T07:11:44.189Z,99667.16
2019-02-12T07:14:38.984Z,99657.54
2019-02-12T07:17:43.576Z,99668.30
2019-02-12T07:20:50.288Z,99667.11
2019-02-12T07:24:20.120Z,99683.30
2019-02-12T07:27:19.944Z,99669.03
2019-02-12T07:30:37.173Z,99639.80
2019-02-12T07:33:47.840Z,99636.66
2019-02-12T07:36:51.974Z,99614.06
2019-02-12T07:40:15.317Z,99603.52
2019-02-12T07:43:18.692Z,99628.34
2019-02-12T07:46:42.776Z,99607.05
2019-02-12T07:49:56.857Z,99610.02
2019-02-12T07:52:52.800Z,99592.42
2019-02-12T07:56:01.633Z,99567.06
2019-02-12T07:59:09.086Z,99560.30
2019-02-12T08:02:07.909Z,99581.58
2019-02-12T08:05:15.086Z,99586.31
2019-02-12T08:08:32.316Z,99593.31
2019-02-12T08:11:42.368Z,99598.84
2019-02-12T08:14:48.854Z,99601.53
2019-02-12T08:17:49.043Z,99609.21
2019-02-12T08:21:10.774Z,99615.49
2019-02-12T08:24:17.666Z,99629.10
2019-02-12T08:27:26.359Z,99633.55
2019-02-12T08:30:24.614Z,99631.05
2019-02-12T08:33:27.553Z,99623.95
2019-02-12T08:36:24.698Z,99658.43
2019-02-12T08:39:38.667Z,99668.31
2019-02-12T08:43:01.202Z,99662.41
2019-02-12T08:46:15.654Z,99684.07
2019-02-12T08:49:13.605Z,99679.90
2019-02-12T08:52:14.759Z,99655.58
2019-02-12T08:55:21.953Z,99650.48
2019-02-12T08:58:38.668Z,99646.24
2019-02-12T09:01:49.769Z,99642.55
2019-02-12T09:04:48.947Z,99655.19
2019-02-12T09:07:46.724Z,99664.17
2019-02-12T09:10:39.033Z,99685.48
2019-02-12T09:13:47.375Z,99698.81
2019-02-12T09:16:41.658Z,99705.13
2019-02-12T09:19:39.885Z,99701.41
2019-02-12T09:22:50.611Z,99686.02
2019-02-12T09:25:51.936Z,99673.20
2019-02-12T09:28:41.266Z,99675.48
2019-02-12T09:31:52.216Z,99700.58
2019-02-12T09:34:51.250Z,99700.56
2019-02-12T09:37:50.270Z,99699.70
2019-02-12T09:40:55.552Z,99683.28
2019-02-12T09:44:14.838Z,99668.56
2019-02-12T09:47:13.034Z,99662.01
2019-02-12T09:50:16.316Z,99671.08
2019-02-12T09:53:15.269Z,99666.44
2019-02-12T09:56:15.849Z,99671.35
2019-02-12T09:59:17.209Z,99689.44
2019-02-12T10:02:15.671Z,99697.23
2019-02-12T10:05:38.733Z,99687.30
2019-02-12T10:08:35.712Z,99671.91
2019-02-12T10:11:28.470Z,99675.45
2019-02-12T10:14:24.692Z,99700.98
2019-02-12T10:17:31.198Z,99717.35
2019-02-12T10:20:20.855Z,99735.18
2019-02-12T10:23:33.878Z,99753.97
2019-02-12T10:26:09.054Z,99755.33
2019-02-12T10:29:20.700Z,99769.60
2019-02-12T10:31:49.893Z,99771.19
2019-02-12T10:34:20.316Z,99794.14
2019-02-12T10:36:51.336Z,99805.51
2019-02-12T10:39:21.970Z,99800.22
2019-02-12T10:41:52.480Z,99797.39
2019-02-12T10:44:24.227Z,99806.10
2019-02-12T10:46:55.169Z,99816.30
2019-02-12T10:49:26.986Z,99804.63
2019-02-12T10:51:57.773Z,99815.98
2019-02-12T10:54:28.461Z,99810.56
2019-02-12T10:56:59.084Z,99811.41
2019-02-12T10:59:30.244Z,99823.52
2019-02-12T11:02:00.594Z,99823.52
2019-02-12T11:04:32.037Z,99827.30
2019-02-12T11:07:05.518Z,99804.56
2019-02-12T11:09:36.654Z,99796.31
2019-02-12T11:12:07.112Z,99787.72
2019-02-12T11:14:37.748Z,99788.28
2019-02-12T11:17:08.909Z,99792.50
2019-02-12T11:19:39.823Z,99791.62
2019-02-12T11:22:11.400Z,99811.88
2019-02-12T11:24:42.158Z,99803.08
2019-02-12T11:27:12.990Z,99792.92
2019-02-12T11:29:43.416Z,99785.40
2019-02-12T11:32:15.108Z,99774.19
2019-02-12T11:34:46.487Z,99780.59
2019-02-12T11:37:16.923Z,99811.04
2019-02-12T11:39:47.845Z,99810.50
2019-02-12T11:42:18.717Z,99791.54
2019-02-12T11:44:49.209Z,99770.06
2019-02-12T11:47:20.551Z,99783.54
2019-02-12T11:49:51.100Z,99789.02
2019-02-12T11:52:22.433Z,99795.75
2019-02-12T11:54:52.879Z,99791.67
2019-02-12T11:57:23.499Z,99792.41
2019-02-12T11:59:53.991Z,99802.47
2019-02-12T12:02:27.828Z,99813.16
2019-02-12T12:04:58.218Z,99814.53
2019-02-12T12:07:29.086Z,99814.70
2019-02-12T12:10:00.177Z,99819.90
2019-02-12T12:12:30.807Z,99844.80
2019-02-12T12:15:01.481Z,99844.34
2019-02-12T12:17:33.410Z,99848.48
2019-02-12T12:20:03.934Z,99863.34
2019-02-12T12:22:34.470Z,99867.05
2019-02-12T12:25:05.498Z,99854.99
2019-02-12T12:27:35.958Z,99863.98
2019-02-12T12:30:08.478Z,99863.22
2019-02-12T12:32:40.049Z,99868.13
2019-02-12T12:35:11.823Z,99867.66
2019-02-12T12:37:43.375Z,99871.81
2019-02-12T12:40:14.305Z,99872.96
2019-02-12T12:42:46.435Z,99872.96
2019-02-12T12:45:17.118Z,99875.46
2019-02-12T12:47:47.808Z,99882.26
2019-02-12T12:50:21.922Z,99896.55
2019-02-12T12:52:52.942Z,99902.86
2019-02-12T12:55:25.323Z,99904.45
2019-02-12T12:57:57.285Z,99912.16
2019-02-12T13:00:28.513Z,99924.57
2019-02-12T13:02:59.086Z,99924.57
2019-02-12T13:05:29.749Z,99937.01
2019-02-12T13:08:00.461Z,99944.98
2019-02-12T13:10:30.978Z,99949.54
2019-02-12T13:13:01.854Z,99957.14
2019-02-12T13:15:32.506Z,99960.22
2019-02-12T13:18:03.130Z,99966.52
2019-02-12T13:20:34.149Z,99971.70
2019-02-12T13:23:05.599Z,99983.95
2019-02-12T13:25:36.133Z,99988.05
2019-02-12T13:28:07.449Z,99995.37
2019-02-12T13:30:38.949Z,100002.22
2019-02-12T13:33:11.119Z,99993.98
2019-02-12T13:35:42.886Z,100000.47
2019-02-12T13:38:14.134Z,100012.81
2019-02-12T13:40:44.905Z,100014.30
2019-02-12T13:43:16.602Z,100017.17
2019-02-12T13:45:49.865Z,100012.08
2019-02-12T13:48:20.338Z,100017.73
2019-02-12T13:50:51.042Z,100020.88
2019-02-12T13:53:21.494Z,100022.25
2019-02-12T13:55:51.897Z,100046.25
2019-02-12T13:58:22.219Z,100051.05
2019-02-12T14:00:53.171Z,100061.05
2019-02-12T14:03:23.920Z,100068.04
2019-02-12T14:05:54.354Z,100073.05
2019-02-12T14:08:24.820Z,100067.11
2019-02-12T14:10:55.152Z,100071.72
2019-02-12T14:13:27.077Z,100078.59
2019-02-12T14:15:57.702Z,100076.91
2019-02-12T14:18:28.473Z,100087.55
2019-02-12T14:20:59.554Z,100091.63
2019-02-12T14:23:30.396Z,100100.97
2019-02-12T14:26:02.100Z,100111.75
2019-02-12T14:28:32.601Z,100126.88
2019-02-12T14:31:03.709Z,100122.73
2019-02-12T14:33:34.186Z,100129.38
2019-02-12T14:36:04.653Z,100126.22
2019-02-12T14:38:36.481Z,100130.54
2019-02-12T14:41:06.903Z,100128.53
2019-02-12T14:43:37.512Z,100116.53
2019-02-12T14:46:08.075Z,100133.98
2019-02-12T14:48:38.807Z,100144.12
2019-02-12T14:51:09.190Z,100148.24
2019-02-12T14:53:39.748Z,100137.88
2019-02-12T14:56:11.559Z,100137.02
2019-02-12T14:58:42.736Z,100141.47
2019-02-12T15:01:13.497Z,100150.35
2019-02-12T15:03:43.899Z,100160.92
2019-02-12T15:06:15.955Z,100179.77
2019-02-12T15:08:46.730Z,100173.25
2019-02-12T15:11:17.713Z,100175.79
2019-02-12T15:13:48.199Z,100183.81
2019-02-12T15:16:19.228Z,100192.11
2019-02-12T15:18:50.259Z,100199.11
2019-02-12T15:21:21.223Z,100196.45
2019-02-12T15:23:52.043Z,100210.09
2019-02-12T15:26:24.177Z,100205.59
2019-02-12T15:28:54.675Z,100206.61
2019-02-12T15:31:25.100Z,100196.32
2019-02-12T15:33:57.000Z,100214.83
2019-02-12T15:36:27.605Z,100233.13
2019-02-12T15:38:58.250Z,100229.92
2019-02-12T15:41:29.171Z,100224.14
2019-02-12T15:43:59.640Z,100231.75
2019-02-12T15:46:30.240Z,100231.06
2019-02-12T15:49:00.933Z,100233.05
2019-02-12T15:51:31.578Z,100240.97
2019-02-12T15:54:02.239Z,100251.73
2019-02-12T15:56:33.306Z,100257.97
2019-02-12T15:59:03.742Z,100264.60
2019-02-12T16:01:34.746Z,100260.63
2019-02-12T16:04:05.467Z,100258.80
2019-02-12T16:06:36.863Z,100268.18
2019-02-12T16:09:08.422Z,100268.39
2019-02-12T16:11:40.009Z,100286.63
2019-02-12T16:14:13.452Z,100294.25
2019-02-12T16:16:44.713Z,100287.86
2019-02-12T16:19:15.491Z,100309.31
2019-02-12T16:21:46.143Z,100309.09
2019-02-12T16:24:17.074Z,100310.12
2019-02-12T16:26:47.579Z,100325.29
2019-02-12T16:29:18.671Z,100335.64
2019-02-12T16:31:49.273Z,100337.94
2019-02-12T16:34:21.132Z,100330.47
2019-02-12T16:36:51.916Z,100343.41
2019-02-12T16:39:22.730Z,100350.47
2019-02-12T16:41:54.781Z,100355.20
2019-02-12T16:44:25.607Z,100360.83
2019-02-12T16:46:57.035Z,100367.81
2019-02-12T16:49:27.807Z,100368.03
2019-02-12T16:52:00.083Z,100378.58
2019-02-12T16:54:32.751Z,100379.80
2019-02-12T16:57:03.865Z,100393.06
2019-02-12T16:59:34.811Z,100396.69
2019-02-12T17:02:07.010Z,100397.79
2019-02-12T17:04:37.931Z,100407.04
2019-02-12T17:07:12.003Z,100404.19
2019-02-12T17:09:42.810Z,100414.95
2019-02-12T17:12:14.139Z,100435.03
2019-02-12T17:14:44.970Z,100446.68
2019-02-12T17:17:15.747Z,100456.41
2019-02-12T17:19:47.152Z,100470.45
2019-02-12T17:22:21.343Z,100479.81
2019-02-12T17:24:52.659Z,100475.25
2019-02-12T17:27:23.913Z,100464.42
2019-02-12T17:29:57.493Z,100481.25
2019-02-12T17:32:29.292Z,100495.34
2019-02-12T17:35:01.927Z,100504.67
2019-02-12T17:37:32.975Z,100516.46
2019-02-12T17:40:04.920Z,100527.17
2019-02-12T17:42:37.971Z,100523.39
2019-02-12T17:45:09.515Z,100526.08
2019-02-12T17:47:40.434Z,100528.98
2019-02-12T17:50:12.396Z,100531.47
2019-02-12T17:52:43.545Z,100525.27
2019-02-12T17:55:16.229Z,100531.19
2019-02-12T17:57:46.944Z,100531.34
2019-02-12T18:00:19.513Z,100540.61
2019-02-12T18:02:52.743Z,100543.98
2019-02-12T18:05:24.233Z,100550.44
2019-02-12T18:07:55.096Z,100558.20
2019-02-12T18:10:25.857Z,100563.48
2019-02-12T18:12:56.167Z,100562.45
2019-02-12T18:15:26.878Z,100564.77
2019-02-12T18:17:58.134Z,100566.78
2019-02-12T18:20:29.487Z,100572.45
2019-02-12T18:23:01.772Z,100571.66
2019-02-12T18:25:32.661Z,100570.06
2019-02-12T18:28:04.108Z,100575.17
2019-02-12T18:30:34.941Z,100572.27
2019-02-12T18:33:06.670Z,100578.42
2019-02-12T18:35:42.876Z,100570.19
2019-02-12T18:38:13.290Z,100582.61
2019-02-12T18:40:45.907Z,100591.95
2019-02-12T18:43:18.051Z,100603.39
2019-02-12T18:45:48.767Z,100605.57
2019-02-12T18:48:20.347Z,100603.77
2019-02-12T18:50:50.964Z,100621.19
2019-02-12T18:53:22.650Z,100615.07
2019-02-12T18:55:54.010Z,100611.38
2019-02-12T18:58:30.368Z,100620.44
2019-02-12T19:01:01.896Z,100628.13
2019-02-12T19:03:39.946Z,100632.23
2019-02-12T19:06:13.622Z,100638.02
2019-02-12T19:08:45.769Z,100647.22
2019-02-12T19:11:16.990Z,100661.39
2019-02-12T19:13:47.562Z,100675.80
2019-02-12T19:16:19.513Z,100670.77
2019-02-12T19:18:51.879Z,100676.09
2019-02-12T19:21:25.409Z,100684.52
2019-02-12T19:23:55.816Z,100688.91
2019-02-12T19:26:26.174Z,100692.80
2019-02-12T19:28:57.102Z,100694.63
2019-02-12T19:31:27.747Z,100695.28
2019-02-12T19:33:58.500Z,100697.44
2019-02-12T19:36:30.060Z,100699.02
2019-02-12T19:39:01.005Z,100703.91
2019-02-12T19:41:31.917Z,100702.92
2019-02-12T19:44:03.525Z,100703.77
2019-02-12T19:46:34.701Z,100709.65
2019-02-12T19:49:05.541Z,100707.69
2019-02-12T19:51:35.931Z,100710.41
2019-02-12T19:54:06.607Z,100716.08
2019-02-12T19:56:37.356Z,100729.47
2019-02-12T19:59:08.878Z,100731.02
2019-02-12T20:01:40.163Z,100736.05
2019-02-12T20:04:10.896Z,100725.27
2019-02-12T20:06:41.461Z,100729.56
2019-02-12T20:09:23.200Z,100732.09
2019-02-12T20:11:55.501Z,100728.50
2019-02-12T20:14:26.152Z,100743.36
2019-02-12T20:16:56.783Z,100743.23
2019-02-12T20:19:28.541Z,100745.66
2019-02-12T20:21:58.801Z,100753.77
2019-02-12T20:24:29.663Z,100756.78
2019-02-12T20:27:06.472Z,100755.00
2019-02-12T20:29:32.094Z,100762.08
2019-02-12T20:32:02.949Z,100773.06
2019-02-12T20:34:38.211Z,100770.16
2019-02-12T20:37:08.988Z,100765.20
2019-02-12T20:39:41.017Z,100772.75
2019-02-12T20:42:12.496Z,100779.43
2019-02-12T20:44:43.616Z,100781.28
2019-02-12T20:47:14.646Z,100783.72
2019-02-12T20:49:45.320Z,100782.08
2019-02-12T20:52:15.934Z,100788.55
2019-02-12T20:54:47.248Z,100791.31
2019-02-12T20:57:17.797Z,100803.01
2019-02-12T20:59:48.555Z,100811.03
2019-02-12T21:02:20.195Z,100813.63
2019-02-12T21:04:50.754Z,100810.77
2019-02-12T21:07:21.607Z,100814.53
2019-02-12T21:09:52.347Z,100821.06
2019-02-12T21:12:22.740Z,100832.64
2019-02-12T21:14:53.235Z,100837.37
2019-02-12T21:17:24.530Z,100838.88
2019-02-12T21:19:56.529Z,100834.38
2019-02-12T21:22:28.962Z,100836.20
2019-02-12T21:25:00.322Z,100837.08
2019-02-12T21:27:30.955Z,100842.08
2019-02-12T21:30:01.825Z,100839.36
2019-02-12T21:32:33.009Z,100842.09
2019-02-12T21:37:36.147Z,100847.32
2019-02-12T21:40:09.275Z,100849.83
2019-02-12T21:42:40.415Z,100855.64
2019-02-12T21:45:12.794Z,100858.23
2019-02-12T21:47:43.724Z,100865.89
2019-02-12T21:50:19.364Z,100862.73
2019-02-12T21:52:49.970Z,100858.73
2019-02-12T21:55:20.869Z,100858.44
2019-02-12T21:57:51.446Z,100866.65
2019-02-12T22:00:22.064Z,100860.59
2019-02-12T22:02:54.862Z,100867.56
2019-02-12T22:05:26.128Z,100861.59
2019-02-12T22:07:56.690Z,100868.41
2019-02-12T22:10:27.014Z,100865.65
2019-02-12T22:12:57.438Z,100871.56
2019-02-12T22:15:27.943Z,100875.44
2019-02-12T22:17:58.605Z,100881.42
2019-02-12T22:20:33.596Z,100882.36
2019-02-12T22:23:05.539Z,100882.97
2019-02-12T22:28:06.284Z,100886.59
2019-02-12T22:30:38.319Z,100891.42
2019-02-12T22:33:09.097Z,100895.38
2019-02-12T22:35:39.816Z,100909.36
2019-02-12T22:38:10.784Z,100906.03
2019-02-12T22:40:41.611Z,100912.25
2019-02-12T22:43:12.230Z,100906.40
2019-02-12T22:45:44.629Z,100910.51
2019-02-12T22:48:15.788Z,100927.14
2019-02-12T22:50:46.215Z,100924.61
2019-02-12T22:53:18.151Z,100935.72
2019-02-12T22:55:48.883Z,100949.44
2019-02-12T22:58:19.391Z,100942.00
2019-02-12T23:01:06.063Z,100943.35
2019-02-12T23:03:37.624Z,100951.27
2019-02-12T23:06:08.155Z,100952.95
2019-02-12T23:08:38.887Z,100957.73
2019-02-12T23:11:09.312Z,100958.22
2019-02-12T23:13:39.848Z,100963.48
2019-02-12T23:16:10.539Z,100972.31
2019-02-12T23:18:41.075Z,100973.44
2019-02-12T23:21:11.445Z,100977.31
2019-02-12T23:23:43.344Z,100977.36
2019-02-12T23:26:14.614Z,100983.97
2019-02-12T23:28:45.099Z,100989.44
2019-02-12T23:31:16.498Z,101002.84
2019-02-12T23:33:46.862Z,101002.17
2019-02-12T23:36:17.283Z,100998.87
2019-02-12T23:38:49.414Z,101005.98
2019-02-12T23:41:20.313Z,101008.75
2019-02-12T23:43:50.704Z,101015.59
2019-02-12T23:46:20.999Z,101015.30
2019-02-12T23:48:51.412Z,101016.00
2019-02-12T23:51:21.464Z,101011.19
2019-02-12T23:53:52.069Z,101018.03
2019-02-12T23:56:22.658Z,101015.93
2019-02-12T23:58:53.484Z,101024.18
